Duluth, MN

5:35 PM CDT on May 30, 2015 (GMT -0500)
Chester Park WX | | Change Station
CLOSE
Current Station
Personal Weather Station
Location: Duluth, MN
Elevation: 1040 ft
Nearby Weather Stations
Active Advisory: Frost Advisory

Elev 1040 ft 46.81 °N, 92.08 °W | Updated 4 seconds ago

Clear
Clear
50.5 °F
Feels Like 50.5 °F
N
2.0
Wind Variable Wind from East
Gusts 2.0 mph

Today
High -- | Low -- °F
--% Chance of Precip.
Yesterday
High -- | Low -- °F
Precip. -- in
5:19 AM 8:52 PM
Waxing Gibbous, 92% visible
Pressure 30.32 in
Visibility 10.0 miles
Clouds Clear
Dew Point 32 °F
Humidity 49%
Rainfall 0.00 in
Snow Depth Not available.
UV 5 out of 12
Pollen 8.20 out of 12
Air Quality Not available.
Flu Activity Sporadic
METAR KDLH 302155Z 12009KT 10SM CLR 12/00 A3029 RMK AO2 SLP266 T01220000

More Conditions Fewer Conditions

Pressure 30.32 in
Visibility 10.0 miles
Clouds Clear
Dew Point 32 °F
Humidity 49%
Rainfall 0.00 in
Snow Depth Not available.
UV 5 out of 12
Pollen 8.20 out of 12
Air Quality Not available.
Flu Activity Sporadic
METAR KDLH 302155Z 12009KT 10SM CLR 12/00 A3029 RMK AO2 SLP266 T01220000

More Conditions Fewer Conditions

10-Day Weather Forecast

Almanac

Astronomy

May. 30, 2015 Rise Set
Actual Time
Civil Twilight
Nautical Twilight
Astronomical Twilight
Moon
Length of Visible Light
Length of Day
Tomorrow will be .
, % of the Moon is Illuminated

Today's Extremes

State Highs State Lows

Community

WunderPhotos

Upload Photos

1,825,602 photos uploaded!

WunderBlogs® & News

Nearby

Air Quality

  Air Quality AQ Index Pollutant
Not available.

Snow Depth

Station Depth Elevation

Earthquake Activity

City Distance Mag. Time & Date
Minimum magnitude displayed is 2.5.

Coastal Water Temperatures

Place Temperature

Stations

Nearby Weather Stations

Station Location Temp. Windchill Dew Point Humidity Wind Precip. Elev Updated Type
                   
Frost Advisory
Statement as of 3:18 PM CDT on May 30, 2015

... Frost advisory in effect from midnight tonight to 8 am CDT
Sunday...

The National Weather Service in Duluth has issued a frost
advisory... which is in effect from midnight tonight to 8 am CDT
Sunday.

* Location... northeast Minnesota from International Falls to
Brainerd to Duluth... and southward to Hinckley.

* Temperatures... in the lower to mid 30s.

* Timing... the coldest temperatures will develop around or just
after midnight and persist through Sunday morning.

* Impacts... frost is expected to develop tonight. Temperatures
may drop to freezing in spots as well.

Precautionary/preparedness actions...

A frost advisory means that frost is possible. Sensitive outdoor
plants may be killed if left uncovered.



Bjt